createdAt,value
2019-04-25T00:00:13.823Z,36.00
2019-04-25T00:01:14.195Z,35.91
2019-04-25T00:02:14.666Z,35.80
2019-04-25T00:03:13.811Z,35.80
2019-04-25T00:04:13.781Z,35.91
2019-04-25T00:05:13.786Z,35.91
2019-04-25T00:06:13.783Z,35.91
2019-04-25T00:07:13.748Z,35.91
2019-04-25T00:08:13.751Z,35.91
2019-04-25T00:09:14.659Z,35.91
2019-04-25T00:10:13.913Z,35.41
2019-04-25T00:11:14.179Z,35.91
2019-04-25T00:12:13.698Z,35.61
2019-04-25T00:13:14.670Z,35.80
2019-04-25T00:14:14.661Z,35.61
2019-04-25T00:15:13.662Z,35.91
2019-04-25T00:16:13.662Z,35.91
2019-04-25T00:17:13.656Z,35.80
2019-04-25T00:18:13.630Z,35.41
2019-04-25T00:19:14.163Z,35.41
2019-04-25T00:20:13.608Z,35.80
2019-04-25T00:21:13.626Z,35.71
2019-04-25T00:22:13.605Z,34.91
2019-04-25T00:23:13.577Z,35.71
2019-04-25T00:24:13.562Z,35.71
2019-04-25T00:25:17.497Z,35.11
2019-04-25T00:26:13.569Z,35.61
2019-04-25T00:27:14.195Z,34.91
2019-04-25T00:28:14.171Z,35.71
2019-04-25T00:29:13.508Z,34.81
2019-04-25T00:30:14.174Z,34.83
2019-04-25T00:31:13.510Z,34.81
2019-04-25T00:32:13.491Z,34.83
2019-04-25T00:33:13.482Z,35.50
2019-04-25T00:34:13.457Z,35.41
2019-04-25T00:35:13.445Z,35.21
2019-04-25T00:36:13.494Z,35.21
2019-04-25T00:37:14.001Z,34.81
2019-04-25T00:38:13.417Z,35.21
2019-04-25T00:39:13.400Z,35.11
2019-04-25T00:40:13.630Z,35.21
2019-04-25T00:41:13.420Z,35.22
2019-04-25T00:42:13.383Z,35.22
2019-04-25T00:43:13.369Z,35.22
2019-04-25T00:44:13.347Z,34.91
2019-04-25T00:45:13.968Z,35.22
2019-04-25T00:46:13.336Z,35.22
2019-04-25T00:47:13.316Z,35.22
2019-04-25T00:48:14.185Z,35.22
2019-04-25T00:49:13.298Z,34.92
2019-04-25T00:50:13.283Z,34.83
2019-04-25T00:51:13.311Z,35.13
2019-04-25T00:52:13.255Z,35.13
2019-04-25T00:53:14.182Z,34.92
2019-04-25T00:54:13.240Z,35.13
2019-04-25T00:55:25.916Z,35.33
2019-04-25T00:56:13.210Z,35.63
2019-04-25T00:57:13.219Z,35.22
2019-04-25T00:58:13.187Z,35.52
2019-04-25T00:59:13.980Z,35.52
2019-04-25T01:00:13.206Z,35.42
2019-04-25T01:01:13.158Z,35.42
2019-04-25T01:02:13.195Z,35.33
2019-04-25T01:03:13.134Z,35.22
2019-04-25T01:04:13.126Z,35.22
2019-04-25T01:05:13.680Z,34.92
2019-04-25T01:06:13.114Z,35.03
2019-04-25T01:07:13.111Z,34.92
2019-04-25T01:08:13.104Z,34.92
2019-04-25T01:09:13.068Z,35.22
2019-04-25T01:10:13.056Z,35.03
2019-04-25T01:11:13.065Z,35.63
2019-04-25T01:12:13.046Z,34.92
2019-04-25T01:13:13.680Z,35.22
2019-04-25T01:14:13.013Z,35.13
2019-04-25T01:15:13.004Z,34.83
2019-04-25T01:16:12.999Z,35.13
2019-04-25T01:17:12.998Z,34.92
2019-04-25T01:18:12.970Z,35.03
2019-04-25T01:19:13.422Z,35.13
2019-04-25T01:20:13.966Z,35.13
2019-04-25T01:21:14.137Z,35.13
2019-04-25T01:22:14.450Z,34.83
2019-04-25T01:23:13.782Z,35.03
2019-04-25T01:24:14.133Z,34.92
2019-04-25T01:25:13.810Z,35.13
2019-04-25T01:26:13.232Z,34.92
2019-04-25T01:27:13.476Z,35.13
2019-04-25T01:28:13.291Z,35.03
2019-04-25T01:29:13.600Z,35.13
2019-04-25T01:30:14.115Z,34.92
2019-04-25T01:31:13.752Z,34.92
2019-04-25T01:32:13.946Z,35.13
2019-04-25T01:33:13.666Z,35.22
2019-04-25T01:34:14.233Z,35.03
2019-04-25T01:35:13.954Z,35.22
2019-04-25T01:36:13.366Z,35.22
2019-04-25T01:37:13.953Z,35.33
2019-04-25T01:38:13.851Z,35.33
2019-04-25T01:39:14.376Z,35.63
2019-04-25T01:40:14.086Z,35.22
2019-04-25T01:41:14.476Z,35.33
2019-04-25T01:42:13.820Z,35.63
2019-04-25T01:43:13.780Z,35.42
2019-04-25T01:44:14.368Z,35.63
2019-04-25T01:45:14.079Z,35.63
2019-04-25T01:46:14.601Z,35.52
2019-04-25T01:47:14.128Z,35.33
2019-04-25T01:48:13.646Z,35.42
2019-04-25T01:49:14.005Z,35.33
2019-04-25T01:50:13.747Z,35.33
2019-04-25T01:51:14.221Z,35.42
2019-04-25T01:52:13.688Z,35.52
2019-04-25T01:53:14.474Z,35.33
2019-04-25T01:54:14.115Z,35.33
2019-04-25T01:55:13.734Z,35.22
2019-04-25T01:56:13.574Z,35.33
2019-04-25T01:57:14.141Z,34.83
2019-04-25T01:58:13.713Z,35.33
2019-04-25T01:59:13.499Z,34.33
2019-04-25T02:00:13.950Z,35.33
2019-04-25T02:01:14.222Z,34.83
2019-04-25T02:02:14.058Z,35.42
2019-04-25T02:03:13.493Z,35.33
2019-04-25T02:04:13.208Z,34.43
2019-04-25T02:05:13.909Z,34.63
2019-04-25T02:06:13.619Z,35.22
2019-04-25T02:07:13.510Z,35.22
2019-04-25T02:08:14.185Z,34.63
2019-04-25T02:09:13.687Z,34.53
2019-04-25T02:10:13.467Z,34.63
2019-04-25T02:11:14.119Z,34.53
2019-04-25T02:12:13.522Z,34.53
2019-04-25T02:13:13.562Z,34.63
2019-04-25T02:14:13.729Z,34.43
2019-04-25T02:15:13.783Z,34.63
2019-04-25T02:16:14.222Z,34.53
2019-04-25T02:17:14.028Z,34.63
2019-04-25T02:18:13.695Z,34.92
2019-04-25T02:19:12.318Z,35.42
2019-04-25T02:20:13.865Z,35.22
2019-04-25T02:21:13.731Z,34.34
2019-04-25T02:22:12.272Z,34.53
2019-04-25T02:23:14.023Z,34.94
2019-04-25T02:24:13.725Z,34.83
2019-04-25T02:25:13.353Z,35.33
2019-04-25T02:26:16.737Z,34.92
2019-04-25T02:27:13.541Z,34.64
2019-04-25T02:28:13.970Z,34.63
2019-04-25T02:29:13.647Z,35.72
2019-04-25T02:30:12.177Z,34.63
2019-04-25T02:31:17.585Z,35.22
2019-04-25T02:32:14.272Z,34.83
2019-04-25T02:33:14.201Z,34.73
2019-04-25T02:34:17.469Z,34.53
2019-04-25T02:35:14.509Z,34.75
2019-04-25T02:36:14.467Z,34.92
2019-04-25T02:37:14.591Z,35.13
2019-04-25T02:38:16.488Z,34.53
2019-04-25T02:39:12.182Z,34.73
2019-04-25T02:40:14.190Z,35.13
2019-04-25T02:41:14.493Z,34.53
2019-04-25T02:42:14.334Z,35.13
2019-04-25T02:43:14.154Z,35.13
2019-04-25T02:44:12.040Z,35.33
2019-04-25T02:45:16.234Z,35.42
2019-04-25T02:46:15.044Z,34.23
2019-04-25T02:47:14.643Z,35.22
2019-04-25T02:48:14.124Z,35.72
2019-04-25T02:49:28.798Z,35.24
2019-04-25T02:50:11.965Z,35.63
2019-04-25T02:51:14.452Z,34.23
2019-04-25T02:52:15.786Z,35.72
2019-04-25T02:53:13.986Z,35.22
2019-04-25T02:54:13.999Z,35.22
2019-04-25T02:55:28.123Z,35.22
2019-04-25T02:56:27.698Z,35.22
2019-04-25T02:57:11.883Z,35.22
2019-04-25T02:58:13.937Z,35.13
2019-04-25T02:59:11.919Z,35.22
2019-04-25T03:00:11.856Z,35.22
2019-04-25T03:01:19.571Z,35.22
2019-04-25T03:02:11.832Z,34.13
2019-04-25T03:03:11.835Z,35.03
2019-04-25T03:04:14.231Z,35.03
2019-04-25T03:05:14.064Z,35.14
2019-04-25T03:06:11.786Z,34.92
2019-04-25T03:07:11.788Z,34.94
2019-04-25T03:08:14.181Z,34.92
2019-04-25T03:09:11.796Z,34.84
2019-04-25T03:10:11.792Z,34.92
2019-04-25T03:11:14.668Z,34.92
2019-04-25T03:12:26.580Z,34.92
2019-04-25T03:13:12.540Z,34.94
2019-04-25T03:14:11.739Z,35.22
2019-04-25T03:15:11.704Z,35.22
2019-04-25T03:16:14.011Z,35.33
2019-04-25T03:17:14.008Z,34.83
2019-04-25T03:18:13.085Z,35.24
2019-04-25T03:19:14.116Z,35.34
2019-04-25T03:20:14.593Z,35.24
2019-04-25T03:21:14.880Z,35.24
2019-04-25T03:22:12.035Z,35.22
2019-04-25T03:23:11.614Z,35.03
2019-04-25T03:24:13.944Z,35.13
2019-04-25T03:25:16.437Z,35.13
2019-04-25T03:26:11.575Z,34.94
2019-04-25T03:27:11.561Z,35.03
2019-04-25T03:28:11.544Z,35.03
2019-04-25T03:29:11.539Z,35.03
2019-04-25T03:30:14.093Z,34.94
2019-04-25T03:31:18.683Z,34.84
2019-04-25T03:32:15.580Z,35.34
2019-04-25T03:33:18.116Z,35.05
2019-04-25T03:34:14.727Z,35.33
2019-04-25T03:35:12.996Z,35.24
2019-04-25T03:36:11.451Z,35.22
2019-04-25T03:37:13.760Z,35.24
2019-04-25T03:38:11.433Z,35.14
2019-04-25T03:39:11.446Z,35.05
2019-04-25T03:40:12.299Z,35.14
2019-04-25T03:41:11.396Z,34.73
2019-04-25T03:42:12.033Z,35.24
2019-04-25T03:43:11.378Z,34.64
2019-04-25T03:44:12.145Z,35.14
2019-04-25T03:45:11.690Z,34.75
2019-04-25T03:46:11.343Z,34.64
2019-04-25T03:47:11.592Z,34.84
2019-04-25T03:48:11.714Z,34.94
2019-04-25T03:49:11.845Z,34.84
2019-04-25T03:50:12.315Z,35.05
2019-04-25T03:51:12.175Z,35.24
2019-04-25T03:52:12.243Z,34.84
2019-04-25T03:53:12.083Z,34.84
2019-04-25T03:54:12.211Z,35.24
2019-04-25T03:55:12.365Z,35.05
2019-04-25T03:56:11.255Z,35.05
2019-04-25T03:57:11.276Z,35.24
2019-04-25T03:58:11.733Z,35.05
2019-04-25T03:59:14.192Z,35.05
2019-04-25T04:00:13.716Z,35.05
2019-04-25T04:01:11.189Z,35.05
2019-04-25T04:02:11.693Z,35.24
2019-04-25T04:03:11.454Z,35.14
2019-04-25T04:04:11.194Z,35.14
2019-04-25T04:05:11.462Z,35.14
2019-04-25T04:06:11.647Z,35.14
2019-04-25T04:07:12.711Z,35.05
2019-04-25T04:08:11.881Z,34.94
2019-04-25T04:09:11.838Z,34.84
2019-04-25T04:10:12.581Z,34.84
2019-04-25T04:11:12.060Z,34.84
2019-04-25T04:12:11.061Z,34.84
2019-04-25T04:13:11.041Z,34.84
2019-04-25T04:14:11.063Z,35.05
2019-04-25T04:15:11.039Z,35.06
2019-04-25T04:16:11.016Z,35.05
2019-04-25T04:17:11.102Z,35.05
2019-04-25T04:18:10.992Z,35.05
2019-04-25T04:19:10.995Z,35.05
2019-04-25T04:20:11.193Z,34.84
2019-04-25T04:21:11.156Z,35.05
2019-04-25T04:22:11.207Z,35.06
2019-04-25T04:23:11.333Z,34.75
2019-04-25T04:24:11.726Z,34.84
2019-04-25T04:25:11.619Z,34.76
2019-04-25T04:26:13.389Z,34.96
2019-04-25T04:27:12.027Z,34.56
2019-04-25T04:28:11.879Z,35.05
2019-04-25T04:29:10.878Z,34.84
2019-04-25T04:30:12.084Z,34.55
2019-04-25T04:31:10.845Z,34.25
2019-04-25T04:32:10.835Z,34.45
2019-04-25T04:33:23.152Z,34.46
2019-04-25T04:34:10.829Z,34.64
2019-04-25T04:35:10.837Z,34.55
2019-04-25T04:36:10.908Z,34.56
2019-04-25T04:37:11.146Z,34.45
2019-04-25T04:38:11.620Z,34.55
2019-04-25T04:39:10.759Z,34.45
2019-04-25T04:40:11.635Z,34.45
2019-04-25T04:41:11.558Z,34.55
2019-04-25T04:42:11.639Z,34.36
2019-04-25T04:43:11.680Z,34.45
2019-04-25T04:44:10.703Z,34.25
2019-04-25T04:45:12.386Z,34.55
2019-04-25T04:46:10.694Z,34.64
2019-04-25T04:47:10.669Z,33.76
2019-04-25T04:48:10.664Z,35.05
2019-04-25T04:49:11.183Z,33.75
2019-04-25T04:50:10.647Z,34.45
2019-04-25T04:51:10.639Z,34.46
2019-04-25T04:52:11.181Z,33.75
2019-04-25T04:53:10.994Z,33.55
2019-04-25T04:54:11.001Z,33.56
2019-04-25T04:55:11.611Z,34.94
2019-04-25T04:56:11.321Z,33.55
2019-04-25T04:57:23.276Z,33.65
2019-04-25T04:58:11.174Z,33.75
2019-04-25T04:59:11.191Z,33.76
2019-04-25T05:00:11.062Z,33.56
2019-04-25T05:01:11.110Z,33.86
2019-04-25T05:02:11.446Z,33.76
2019-04-25T05:03:11.178Z,33.76
2019-04-25T05:04:10.696Z,33.65
2019-04-25T05:05:10.619Z,33.47
2019-04-25T05:06:10.953Z,33.56
2019-04-25T05:07:11.072Z,33.97
2019-04-25T05:08:11.081Z,33.75
2019-04-25T05:09:12.049Z,33.76
2019-04-25T05:10:11.273Z,33.76
2019-04-25T05:11:12.299Z,33.45
2019-04-25T05:12:10.725Z,33.75
2019-04-25T05:13:11.966Z,33.56
2019-04-25T05:14:11.842Z,33.76
2019-04-25T05:15:10.367Z,33.97
2019-04-25T05:16:11.156Z,33.67
2019-04-25T05:17:10.343Z,33.56
2019-04-25T05:18:10.330Z,33.47
2019-04-25T05:19:11.684Z,33.56
2019-04-25T05:20:10.321Z,33.76
2019-04-25T05:21:10.333Z,33.76
2019-04-25T05:22:10.284Z,34.05
2019-04-25T05:23:10.274Z,34.06
2019-04-25T05:24:10.265Z,33.56
2019-04-25T05:25:10.260Z,34.16
2019-04-25T05:26:10.259Z,33.76
2019-04-25T05:27:10.247Z,33.75
2019-04-25T05:28:10.231Z,33.86
2019-04-25T05:29:10.227Z,33.65
2019-04-25T05:30:10.212Z,33.86
2019-04-25T05:31:10.221Z,33.76
2019-04-25T05:32:10.181Z,34.06
2019-04-25T05:33:10.688Z,34.06
2019-04-25T05:34:10.166Z,33.45
2019-04-25T05:35:10.160Z,34.06
2019-04-25T05:36:10.157Z,33.86
2019-04-25T05:37:10.126Z,34.06
2019-04-25T05:38:10.117Z,34.06
2019-04-25T05:39:10.100Z,33.86
2019-04-25T05:40:10.123Z,34.06
2019-04-25T05:41:10.099Z,33.76
2019-04-25T05:42:10.069Z,34.06
2019-04-25T05:43:10.073Z,33.67
2019-04-25T05:44:10.053Z,33.97
2019-04-25T05:45:10.070Z,34.06
2019-04-25T05:46:10.049Z,33.76
2019-04-25T05:47:10.018Z,33.76
2019-04-25T05:48:10.693Z,33.86
2019-04-25T05:49:09.990Z,34.46
2019-04-25T05:50:09.976Z,35.06
2019-04-25T05:51:09.991Z,35.36
2019-04-25T05:52:09.956Z,35.26
2019-04-25T05:53:09.946Z,35.75
2019-04-25T05:54:09.937Z,34.56
2019-04-25T05:55:10.699Z,34.56
2019-04-25T05:56:09.950Z,35.16
2019-04-25T05:57:09.903Z,34.55
2019-04-25T05:58:09.894Z,35.26
2019-04-25T05:59:09.886Z,35.16
2019-04-25T06:00:10.693Z,34.96
2019-04-25T06:01:09.898Z,35.36
2019-04-25T06:02:09.843Z,34.56
2019-04-25T06:03:10.691Z,34.36
2019-04-25T06:04:10.689Z,35.26
2019-04-25T06:05:10.695Z,35.16
2019-04-25T06:06:09.805Z,35.26
2019-04-25T06:07:09.810Z,35.46
2019-04-25T06:08:10.700Z,35.06
2019-04-25T06:09:09.775Z,35.26
2019-04-25T06:10:09.756Z,35.06
2019-04-25T06:11:09.749Z,34.86
2019-04-25T06:12:09.751Z,35.34
2019-04-25T06:13:09.741Z,35.84
2019-04-25T06:14:09.714Z,35.54
2019-04-25T06:15:09.704Z,34.84
2019-04-25T06:16:09.705Z,35.24
2019-04-25T06:17:09.721Z,34.86
2019-04-25T06:18:09.669Z,34.94
2019-04-25T06:19:14.072Z,35.26
2019-04-25T06:20:09.651Z,35.24
2019-04-25T06:21:09.643Z,35.16
2019-04-25T06:22:09.790Z,34.84
2019-04-25T06:23:09.612Z,34.86
2019-04-25T06:24:10.197Z,35.24
2019-04-25T06:25:13.744Z,35.44
2019-04-25T06:26:22.489Z,35.64
2019-04-25T06:27:09.587Z,35.74
2019-04-25T06:28:09.564Z,35.34
2019-04-25T06:29:09.547Z,35.44
2019-04-25T06:30:09.548Z,35.84
2019-04-25T06:31:10.392Z,35.05
2019-04-25T06:32:09.548Z,33.65
2019-04-25T06:33:09.509Z,34.05
2019-04-25T06:34:10.208Z,33.45
2019-04-25T06:35:10.195Z,33.17
2019-04-25T06:36:09.476Z,33.37
2019-04-25T06:37:09.482Z,33.86
2019-04-25T06:38:09.449Z,33.67
2019-04-25T06:39:10.194Z,33.86
2019-04-25T06:40:09.437Z,33.76
2019-04-25T06:41:09.424Z,33.97
2019-04-25T06:42:09.425Z,33.97
2019-04-25T06:43:09.397Z,33.67
2019-04-25T06:44:09.405Z,34.05
2019-04-25T06:45:10.220Z,34.36
2019-04-25T06:46:09.371Z,33.67
2019-04-25T06:47:09.362Z,33.56
2019-04-25T06:48:09.345Z,33.76
2019-04-25T06:49:09.327Z,33.47
2019-04-25T06:50:09.336Z,33.76
2019-04-25T06:51:10.196Z,34.36
2019-04-25T06:52:09.318Z,34.66
2019-04-25T06:53:10.193Z,34.46
2019-04-25T06:54:09.272Z,34.56
2019-04-25T06:55:09.264Z,34.66
2019-04-25T06:56:09.253Z,34.86
2019-04-25T06:57:09.260Z,35.16
2019-04-25T06:58:12.304Z,35.06
2019-04-25T06:59:09.271Z,34.96
2019-04-25T07:00:09.208Z,35.46
2019-04-25T07:01:09.201Z,35.26
2019-04-25T07:02:09.218Z,35.16
2019-04-25T07:03:09.190Z,34.56
2019-04-25T07:04:09.175Z,35.36
2019-04-25T07:05:09.162Z,35.06
2019-04-25T07:06:09.177Z,35.26
2019-04-25T07:07:12.048Z,34.84
2019-04-25T07:08:09.700Z,35.24
2019-04-25T07:09:09.708Z,35.24
2019-04-25T07:10:09.121Z,34.96
2019-04-25T07:11:09.096Z,35.14
2019-04-25T07:12:09.084Z,35.14
2019-04-25T07:13:09.085Z,35.26
2019-04-25T07:14:09.067Z,35.44
2019-04-25T07:15:09.083Z,35.56
2019-04-25T07:16:09.044Z,35.24
2019-04-25T07:17:09.044Z,35.16
2019-04-25T07:18:09.214Z,35.16
2019-04-25T07:19:09.741Z,35.74
2019-04-25T07:20:08.998Z,35.86
2019-04-25T07:21:08.986Z,35.44
2019-04-25T07:22:08.971Z,35.94
2019-04-25T07:23:09.212Z,36.04
2019-04-25T07:24:08.956Z,35.54
2019-04-25T07:25:09.731Z,35.84
2019-04-25T07:26:08.934Z,35.64
2019-04-25T07:27:08.916Z,35.64
2019-04-25T07:28:21.519Z,35.64
2019-04-25T07:29:08.891Z,35.54
2019-04-25T07:30:08.880Z,35.54
2019-04-25T07:31:09.700Z,35.44
2019-04-25T07:32:08.869Z,35.74
2019-04-25T07:33:08.880Z,36.22
2019-04-25T07:34:09.694Z,35.64
2019-04-25T07:35:09.698Z,36.24
2019-04-25T07:36:08.823Z,36.24
2019-04-25T07:37:09.707Z,36.24
2019-04-25T07:38:09.245Z,36.52
2019-04-25T07:39:10.620Z,36.22
2019-04-25T07:40:08.786Z,35.94
2019-04-25T07:41:08.767Z,36.22
2019-04-25T07:42:08.810Z,36.34
2019-04-25T07:43:08.759Z,36.32
2019-04-25T07:44:08.728Z,36.62
2019-04-25T07:45:08.791Z,36.42
2019-04-25T07:46:08.708Z,36.02
2019-04-25T07:47:08.695Z,36.04
2019-04-25T07:48:08.739Z,36.72
2019-04-25T07:49:08.685Z,36.22
2019-04-25T07:50:08.668Z,36.82
2019-04-25T07:51:08.655Z,36.42
2019-04-25T07:52:11.499Z,36.32
2019-04-25T07:53:08.648Z,36.74
2019-04-25T07:54:09.204Z,36.34
2019-04-25T07:55:08.647Z,37.02
2019-04-25T07:56:08.604Z,36.82
2019-04-25T07:57:08.595Z,36.74
2019-04-25T07:58:08.718Z,36.72
2019-04-25T07:59:08.570Z,36.72
2019-04-25T08:00:08.556Z,36.92
2019-04-25T08:01:08.540Z,36.72
2019-04-25T08:02:09.223Z,36.52
2019-04-25T08:03:08.545Z,36.42
2019-04-25T08:04:08.508Z,36.52
2019-04-25T08:05:09.207Z,37.41
2019-04-25T08:06:08.497Z,36.42
2019-04-25T08:07:08.484Z,37.41
2019-04-25T08:08:08.761Z,37.92
2019-04-25T08:09:09.227Z,37.92
2019-04-25T08:10:08.444Z,37.71
2019-04-25T08:11:09.197Z,36.92
2019-04-25T08:12:08.448Z,36.52
2019-04-25T08:13:09.243Z,36.52
2019-04-25T08:14:08.414Z,37.02
2019-04-25T08:15:08.390Z,36.72
2019-04-25T08:16:09.235Z,36.82
2019-04-25T08:17:08.393Z,36.92
2019-04-25T08:18:08.357Z,36.52
2019-04-25T08:19:08.406Z,37.02
2019-04-25T08:20:08.345Z,36.82
2019-04-25T08:21:09.200Z,36.40
2019-04-25T08:22:08.345Z,37.92
2019-04-25T08:23:08.309Z,37.32
2019-04-25T08:24:08.311Z,37.92
2019-04-25T08:25:08.276Z,37.81
2019-04-25T08:26:08.267Z,37.60
2019-04-25T08:27:08.264Z,37.40
2019-04-25T08:28:08.252Z,37.51
2019-04-25T08:29:08.251Z,37.30
2019-04-25T08:30:08.228Z,37.49
2019-04-25T08:31:08.213Z,37.60
2019-04-25T08:32:08.207Z,36.40
2019-04-25T08:33:08.713Z,37.00
2019-04-25T08:34:08.217Z,37.99
2019-04-25T08:35:08.167Z,37.49
2019-04-25T08:36:09.272Z,37.70
2019-04-25T08:37:17.384Z,37.60
2019-04-25T08:38:08.146Z,37.99
2019-04-25T08:39:08.144Z,38.09
2019-04-25T08:40:08.114Z,37.30
2019-04-25T08:41:08.714Z,36.21
2019-04-25T08:42:08.105Z,37.49
2019-04-25T08:43:08.081Z,37.49
2019-04-25T08:44:08.094Z,37.60
2019-04-25T08:45:08.056Z,36.58
2019-04-25T08:46:08.084Z,37.00
2019-04-25T08:47:08.033Z,36.30
2019-04-25T08:48:08.028Z,37.70
2019-04-25T08:49:08.040Z,37.40
2019-04-25T08:50:08.004Z,37.20
2019-04-25T08:51:07.993Z,37.70
2019-04-25T08:52:07.981Z,36.60
2019-04-25T08:53:07.970Z,37.49
2019-04-25T08:54:07.992Z,36.30
2019-04-25T08:55:07.958Z,36.38
2019-04-25T08:56:07.935Z,37.79
2019-04-25T08:57:07.936Z,37.79
2019-04-25T08:58:08.702Z,37.38
2019-04-25T08:59:08.170Z,36.40
2019-04-25T09:00:08.233Z,36.40
2019-04-25T09:01:08.717Z,37.49
2019-04-25T09:02:07.923Z,36.70
2019-04-25T09:03:07.881Z,36.30
2019-04-25T09:04:07.849Z,36.40
2019-04-25T09:05:08.223Z,36.70
2019-04-25T09:06:07.824Z,37.28
2019-04-25T09:07:07.826Z,37.20
2019-04-25T09:08:07.826Z,37.98
2019-04-25T09:09:07.800Z,37.08
2019-04-25T09:10:07.794Z,36.60
2019-04-25T09:11:07.773Z,37.58
2019-04-25T09:12:07.782Z,37.77
2019-04-25T09:13:07.763Z,37.38
2019-04-25T09:14:08.703Z,36.08
2019-04-25T09:15:07.748Z,36.38
2019-04-25T09:16:07.740Z,36.30
2019-04-25T09:17:07.711Z,36.29
2019-04-25T09:18:07.694Z,35.80
2019-04-25T09:19:07.711Z,36.50
2019-04-25T09:20:07.735Z,35.91
2019-04-25T09:21:07.724Z,36.21
2019-04-25T09:22:07.655Z,36.00
2019-04-25T09:23:07.652Z,36.00
2019-04-25T09:24:07.644Z,36.21
2019-04-25T09:25:07.637Z,35.99
2019-04-25T09:26:07.615Z,35.80
2019-04-25T09:27:08.204Z,36.21
2019-04-25T09:28:08.207Z,35.80
2019-04-25T09:29:16.875Z,35.39
2019-04-25T09:30:07.585Z,36.21
2019-04-25T09:31:07.578Z,36.10
2019-04-25T09:32:07.546Z,35.80
2019-04-25T09:33:07.606Z,35.41
2019-04-25T09:34:07.523Z,35.41
2019-04-25T09:35:07.540Z,35.41
2019-04-25T09:36:07.514Z,35.41
2019-04-25T09:37:07.493Z,35.11
2019-04-25T09:38:07.476Z,35.69
2019-04-25T09:39:07.482Z,35.19
2019-04-25T09:40:07.745Z,34.80
2019-04-25T09:41:07.450Z,34.50
2019-04-25T09:42:07.434Z,35.41
2019-04-25T09:43:08.210Z,34.71
2019-04-25T09:44:08.215Z,34.41
2019-04-25T09:45:07.782Z,35.71
2019-04-25T09:46:07.390Z,34.81
2019-04-25T09:47:07.382Z,35.80
2019-04-25T09:48:07.429Z,36.30
2019-04-25T09:49:07.382Z,36.30
2019-04-25T09:50:07.411Z,36.40
2019-04-25T09:51:07.349Z,36.10
2019-04-25T09:52:07.334Z,35.99
2019-04-25T09:53:07.349Z,36.10
2019-04-25T09:54:07.322Z,35.61
2019-04-25T09:55:08.212Z,35.99
2019-04-25T09:56:07.746Z,36.21
2019-04-25T09:57:08.235Z,35.21
2019-04-25T09:58:07.262Z,35.91
2019-04-25T09:59:08.211Z,36.00
2019-04-25T10:00:07.260Z,36.10
2019-04-25T10:01:07.258Z,35.61
2019-04-25T10:02:07.245Z,35.71
2019-04-25T10:03:07.229Z,35.50
2019-04-25T10:04:07.243Z,36.00
2019-04-25T10:05:07.190Z,35.61
2019-04-25T10:06:07.222Z,35.59
2019-04-25T10:07:07.174Z,35.41
2019-04-25T10:08:07.163Z,35.01
2019-04-25T10:09:07.168Z,35.59
2019-04-25T10:10:07.136Z,35.39
2019-04-25T10:11:07.141Z,36.00
2019-04-25T10:12:07.129Z,35.80
2019-04-25T10:13:07.136Z,35.69
2019-04-25T10:14:07.092Z,36.10
2019-04-25T10:15:07.093Z,35.99
2019-04-25T10:16:07.111Z,36.21
2019-04-25T10:17:07.061Z,36.40
2019-04-25T10:18:07.057Z,36.58
2019-04-25T10:19:07.038Z,36.29
2019-04-25T10:20:07.708Z,35.99
2019-04-25T10:21:07.048Z,36.08
2019-04-25T10:22:07.012Z,35.89
2019-04-25T10:23:07.000Z,36.08
2019-04-25T10:24:07.034Z,35.79
2019-04-25T10:25:07.709Z,36.68
2019-04-25T10:26:06.995Z,36.29
2019-04-25T10:27:07.740Z,36.29
2019-04-25T10:28:06.947Z,36.29
2019-04-25T10:29:06.932Z,35.99
2019-04-25T10:30:16.854Z,36.08
2019-04-25T10:31:06.932Z,36.58
2019-04-25T10:32:06.958Z,35.97
2019-04-25T10:33:06.888Z,35.99
2019-04-25T10:34:06.884Z,36.29
2019-04-25T10:35:06.870Z,36.87
2019-04-25T10:36:06.881Z,36.29
2019-04-25T10:37:06.851Z,36.38
2019-04-25T10:38:07.732Z,36.27
2019-04-25T10:39:10.686Z,36.47
2019-04-25T10:40:06.829Z,36.17
2019-04-25T10:41:06.830Z,36.58
2019-04-25T10:42:06.799Z,36.36
2019-04-25T10:43:06.783Z,36.38
2019-04-25T10:44:06.768Z,35.77
2019-04-25T10:45:06.773Z,35.99
2019-04-25T10:46:06.772Z,36.36
2019-04-25T10:47:06.751Z,35.99
2019-04-25T10:48:06.731Z,36.08
2019-04-25T10:49:06.722Z,35.27
2019-04-25T10:50:06.707Z,35.57
2019-04-25T10:51:06.717Z,35.27
2019-04-25T10:52:06.687Z,34.68
2019-04-25T10:53:07.236Z,34.78
2019-04-25T10:54:08.290Z,34.99
2019-04-25T10:55:06.651Z,34.98
2019-04-25T10:56:06.673Z,34.50
2019-04-25T10:57:07.213Z,34.88
2019-04-25T10:58:07.212Z,35.17
2019-04-25T10:59:06.609Z,35.19
2019-04-25T11:00:09.481Z,35.69
2019-04-25T11:01:06.625Z,35.57
2019-04-25T11:02:06.578Z,35.79
2019-04-25T11:03:06.563Z,35.57
2019-04-25T11:04:07.271Z,35.97
2019-04-25T11:05:06.544Z,35.89
2019-04-25T11:06:06.575Z,35.59
2019-04-25T11:07:06.527Z,35.87
2019-04-25T11:08:07.345Z,35.67
2019-04-25T11:09:06.510Z,36.17
2019-04-25T11:10:06.590Z,35.97
2019-04-25T11:11:06.545Z,35.77
2019-04-25T11:12:06.474Z,36.19
2019-04-25T11:13:06.468Z,35.27
2019-04-25T11:14:07.562Z,36.36
2019-04-25T11:15:06.448Z,35.87
2019-04-25T11:16:06.485Z,36.07
2019-04-25T11:17:06.439Z,36.17
2019-04-25T11:18:06.428Z,35.47
2019-04-25T11:19:06.395Z,35.67
2019-04-25T11:20:06.389Z,36.07
2019-04-25T11:21:06.391Z,36.36
2019-04-25T11:22:06.380Z,36.07
2019-04-25T11:23:07.215Z,36.17
2019-04-25T11:24:06.342Z,36.27
2019-04-25T11:25:06.364Z,35.77
2019-04-25T11:26:06.353Z,35.87
2019-04-25T11:27:06.739Z,35.57
2019-04-25T11:28:07.226Z,35.77
2019-04-25T11:29:07.221Z,36.17
2019-04-25T11:30:10.912Z,36.07
2019-04-25T11:31:06.272Z,35.87
2019-04-25T11:32:06.279Z,36.17
2019-04-25T11:33:06.261Z,35.57
2019-04-25T11:34:06.248Z,35.87
2019-04-25T11:35:07.216Z,35.87
2019-04-25T11:36:06.216Z,36.36
2019-04-25T11:37:06.222Z,36.27
2019-04-25T11:38:06.717Z,36.27
2019-04-25T11:39:06.183Z,35.87
2019-04-25T11:40:06.186Z,36.47
2019-04-25T11:41:06.195Z,35.87
2019-04-25T11:42:06.249Z,35.85
2019-04-25T11:43:06.137Z,36.05
2019-04-25T11:44:06.717Z,35.85
2019-04-25T11:45:06.140Z,35.95
2019-04-25T11:46:06.740Z,36.75
2019-04-25T11:47:08.530Z,36.45
2019-04-25T11:48:06.737Z,36.05
2019-04-25T11:49:06.080Z,36.15
2019-04-25T11:50:06.086Z,35.95
2019-04-25T11:51:06.063Z,36.65
2019-04-25T11:52:06.248Z,36.15
2019-04-25T11:53:06.042Z,35.85
2019-04-25T11:54:06.024Z,36.05
2019-04-25T11:55:06.009Z,36.65
2019-04-25T11:56:05.028Z,36.35
2019-04-25T11:57:06.011Z,36.35
2019-04-25T11:58:06.735Z,36.15
2019-04-25T11:59:06.723Z,36.73
2019-04-25T12:00:05.952Z,36.33
2019-04-25T12:01:06.736Z,36.43
2019-04-25T12:02:06.228Z,36.63
2019-04-25T12:03:05.945Z,36.33
2019-04-25T12:04:05.922Z,36.35
2019-04-25T12:05:05.905Z,36.35
2019-04-25T12:06:05.918Z,36.53
2019-04-25T12:07:07.157Z,36.13
2019-04-25T12:08:06.718Z,36.04
2019-04-25T12:09:05.870Z,36.25
2019-04-25T12:10:06.723Z,36.23
2019-04-25T12:11:06.068Z,36.33
2019-04-25T12:12:05.948Z,36.23
2019-04-25T12:13:06.752Z,36.73
2019-04-25T12:14:05.811Z,36.23
2019-04-25T12:15:06.753Z,36.04
2019-04-25T12:16:05.784Z,36.53
2019-04-25T12:17:05.777Z,36.23
2019-04-25T12:18:05.781Z,36.61
2019-04-25T12:19:06.717Z,36.04
2019-04-25T12:20:05.749Z,35.54
2019-04-25T12:21:05.756Z,36.63
2019-04-25T12:22:06.232Z,36.41
2019-04-25T12:23:10.263Z,36.43
2019-04-25T12:24:05.997Z,36.13
2019-04-25T12:25:06.217Z,36.22
2019-04-25T12:26:05.706Z,36.11
2019-04-25T12:27:06.221Z,36.22
2019-04-25T12:28:05.796Z,35.92
2019-04-25T12:29:05.646Z,36.32
2019-04-25T12:30:05.672Z,36.22
2019-04-25T12:31:05.638Z,36.22
2019-04-25T12:32:05.624Z,36.71
2019-04-25T12:33:18.062Z,36.20
2019-04-25T12:34:05.625Z,36.32
2019-04-25T12:35:06.205Z,36.11
2019-04-25T12:36:05.588Z,36.51
2019-04-25T12:37:06.771Z,36.40
2019-04-25T12:38:05.734Z,35.90
2019-04-25T12:39:05.542Z,35.62
2019-04-25T12:40:06.144Z,35.90
2019-04-25T12:41:05.515Z,36.51
2019-04-25T12:42:05.506Z,36.11
2019-04-25T12:43:05.744Z,36.10
2019-04-25T12:44:05.485Z,35.71
2019-04-25T12:45:06.224Z,36.00
2019-04-25T12:46:06.220Z,35.41
2019-04-25T12:47:05.457Z,36.00
2019-04-25T12:48:05.457Z,36.10
2019-04-25T12:49:05.460Z,34.91
2019-04-25T12:50:05.428Z,35.71
2019-04-25T12:51:05.429Z,33.62
2019-04-25T12:52:05.411Z,33.24